sensor_id;sensor_type;location;lat;lon;timestamp;temperature;humidity
36206;DHT22;22242;48.796;9.930;2023-05-16T00:00:53;8.70;99.90
36206;DHT22;22242;48.796;9.930;2023-05-16T00:03:23;8.70;99.90
36206;DHT22;22242;48.796;9.930;2023-05-16T00:05:50;8.70;99.90
36206;DHT22;22242;48.796;9.930;2023-05-16T00:08:18;8.70;99.90
36206;DHT22;22242;48.796;9.930;2023-05-16T00:10:45;8.60;99.90
36206;DHT22;22242;48.796;9.930;2023-05-16T00:13:13;8.60;99.90
36206;DHT22;22242;48.796;9.930;2023-05-16T00:15:41;8.60;99.90
36206;DHT22;22242;48.796;9.930;2023-05-16T00:18:08;8.50;99.90
36206;DHT22;22242;48.796;9.930;2023-05-16T00:20:39;8.50;99.90
36206;DHT22;22242;48.796;9.930;2023-05-16T00:23:06;8.60;99.90
36206;DHT22;22242;48.796;9.930;2023-05-16T00:25:34;8.60;99.90
36206;DHT22;22242;48.796;9.930;2023-05-16T00:28:01;8.50;99.90
36206;DHT22;22242;48.796;9.930;2023-05-16T00:30:31;8.50;99.90
36206;DHT22;22242;48.796;9.930;2023-05-16T00:32:58;8.50;99.90
36206;DHT22;22242;48.796;9.930;2023-05-16T00:35:25;8.50;99.90
36206;DHT22;22242;48.796;9.930;2023-05-16T00:37:52;8.50;99.90
36206;DHT22;22242;48.796;9.930;2023-05-16T00:40:20;8.50;99.90
36206;DHT22;22242;48.796;9.930;2023-05-16T00:42:47;8.40;99.90
36206;DHT22;22242;48.796;9.930;2023-05-16T00:45:14;8.50;99.90
36206;DHT22;22242;48.796;9.930;2023-05-16T00:47:43;8.50;99.90
36206;DHT22;22242;48.796;9.930;2023-05-16T00:50:10;8.50;99.90
36206;DHT22;22242;48.796;9.930;2023-05-16T00:52:37;8.50;99.90
36206;DHT22;22242;48.796;9.930;2023-05-16T00:55:05;8.40;99.90
36206;DHT22;22242;48.796;9.930;2023-05-16T00:57:33;8.40;99.90
36206;DHT22;22242;48.796;9.930;2023-05-16T01:00:02;8.40;99.90
36206;DHT22;22242;48.796;9.930;2023-05-16T01:02:30;8.40;99.90
36206;DHT22;22242;48.796;9.930;2023-05-16T01:04:59;8.40;99.90
36206;DHT22;22242;48.796;9.930;2023-05-16T01:07:26;8.50;99.90
36206;DHT22;22242;48.796;9.930;2023-05-16T01:09:54;8.50;99.90
36206;DHT22;22242;48.796;9.930;2023-05-16T01:12:28;8.50;99.90
36206;DHT22;22242;48.796;9.930;2023-05-16T01:15:03;8.50;99.90
36206;DHT22;22242;48.796;9.930;2023-05-16T01:17:35;8.60;99.90
36206;DHT22;22242;48.796;9.930;2023-05-16T01:20:08;8.50;99.90
36206;DHT22;22242;48.796;9.930;2023-05-16T01:22:51;8.50;99.90
36206;DHT22;22242;48.796;9.930;2023-05-16T01:25:30;8.50;99.90
36206;DHT22;22242;48.796;9.930;2023-05-16T01:28:00;8.60;99.90
36206;DHT22;22242;48.796;9.930;2023-05-16T01:30:32;8.60;99.90
36206;DHT22;22242;48.796;9.930;2023-05-16T01:33:00;8.60;99.90
36206;DHT22;22242;48.796;9.930;2023-05-16T01:35:27;8.70;99.90
36206;DHT22;22242;48.796;9.930;2023-05-16T01:37:58;8.80;99.90
36206;DHT22;22242;48.796;9.930;2023-05-16T01:40:34;8.80;99.90
36206;DHT22;22242;48.796;9.930;2023-05-16T01:43:07;8.90;99.90
36206;DHT22;22242;48.796;9.930;2023-05-16T01:45:40;9.00;99.90
36206;DHT22;22242;48.796;9.930;2023-05-16T01:48:18;9.00;99.90
36206;DHT22;22242;48.796;9.930;2023-05-16T01:50:49;9.00;99.90
36206;DHT22;22242;48.796;9.930;2023-05-16T01:53:21;9.00;99.90
36206;DHT22;22242;48.796;9.930;2023-05-16T01:55:51;8.90;99.90
36206;DHT22;22242;48.796;9.930;2023-05-16T01:58:22;8.90;99.90
36206;DHT22;22242;48.796;9.930;2023-05-16T02:00:52;8.90;99.90
36206;DHT22;22242;48.796;9.930;2023-05-16T02:03:19;8.80;99.90
36206;DHT22;22242;48.796;9.930;2023-05-16T02:05:46;8.90;99.90
36206;DHT22;22242;48.796;9.930;2023-05-16T02:08:13;8.90;99.90
36206;DHT22;22242;48.796;9.930;2023-05-16T02:10:41;9.00;99.90
36206;DHT22;22242;48.796;9.930;2023-05-16T02:13:08;9.00;99.90
36206;DHT22;22242;48.796;9.930;2023-05-16T02:15:37;9.00;99.90
36206;DHT22;22242;48.796;9.930;2023-05-16T02:18:04;9.00;99.90
36206;DHT22;22242;48.796;9.930;2023-05-16T02:20:31;9.00;99.90
36206;DHT22;22242;48.796;9.930;2023-05-16T02:23:00;9.00;99.90
36206;DHT22;22242;48.796;9.930;2023-05-16T02:29:15;9.10;99.90
36206;DHT22;22242;48.796;9.930;2023-05-16T02:31:44;9.00;99.90
36206;DHT22;22242;48.796;9.930;2023-05-16T02:34:11;9.00;99.90
36206;DHT22;22242;48.796;9.930;2023-05-16T02:36:38;9.00;99.90
36206;DHT22;22242;48.796;9.930;2023-05-16T02:39:05;9.00;99.90
36206;DHT22;22242;48.796;9.930;2023-05-16T02:41:34;9.10;99.90
36206;DHT22;22242;48.796;9.930;2023-05-16T02:44:02;9.00;99.90
36206;DHT22;22242;48.796;9.930;2023-05-16T02:46:30;9.00;99.90
36206;DHT22;22242;48.796;9.930;2023-05-16T02:48:59;9.00;99.90
36206;DHT22;22242;48.796;9.930;2023-05-16T02:51:27;8.90;99.90
36206;DHT22;22242;48.796;9.930;2023-05-16T02:53:54;8.90;99.90
36206;DHT22;22242;48.796;9.930;2023-05-16T02:56:24;8.90;99.90
36206;DHT22;22242;48.796;9.930;2023-05-16T02:58:53;8.90;99.90
36206;DHT22;22242;48.796;9.930;2023-05-16T03:01:20;8.70;99.90
36206;DHT22;22242;48.796;9.930;2023-05-16T03:03:47;8.70;99.90
36206;DHT22;22242;48.796;9.930;2023-05-16T03:06:15;8.70;99.90
36206;DHT22;22242;48.796;9.930;2023-05-16T03:08:42;8.70;99.90
36206;DHT22;22242;48.796;9.930;2023-05-16T03:11:09;8.60;99.90
36206;DHT22;22242;48.796;9.930;2023-05-16T03:13:36;8.60;99.90
36206;DHT22;22242;48.796;9.930;2023-05-16T03:16:04;8.60;99.90
36206;DHT22;22242;48.796;9.930;2023-05-16T03:18:31;8.60;99.90
36206;DHT22;22242;48.796;9.930;2023-05-16T03:20:58;8.50;99.90
36206;DHT22;22242;48.796;9.930;2023-05-16T03:23:27;8.50;99.90
36206;DHT22;22242;48.796;9.930;2023-05-16T03:25:55;8.50;99.90
36206;DHT22;22242;48.796;9.930;2023-05-16T03:28:22;8.40;99.90
36206;DHT22;22242;48.796;9.930;2023-05-16T03:30:49;8.50;99.90
36206;DHT22;22242;48.796;9.930;2023-05-16T03:33:16;8.40;99.90
36206;DHT22;22242;48.796;9.930;2023-05-16T03:35:44;8.40;99.90
36206;DHT22;22242;48.796;9.930;2023-05-16T03:38:11;8.40;99.90
36206;DHT22;22242;48.796;9.930;2023-05-16T03:40:40;8.30;99.90
36206;DHT22;22242;48.796;9.930;2023-05-16T03:43:07;8.30;99.90
36206;DHT22;22242;48.796;9.930;2023-05-16T03:45:34;8.30;99.90
36206;DHT22;22242;48.796;9.930;2023-05-16T03:48:01;8.20;99.90
36206;DHT22;22242;48.796;9.930;2023-05-16T03:50:28;8.20;99.90
36206;DHT22;22242;48.796;9.930;2023-05-16T03:52:55;8.30;99.90
36206;DHT22;22242;48.796;9.930;2023-05-16T03:55:22;8.30;99.90
36206;DHT22;22242;48.796;9.930;2023-05-16T03:57:51;8.30;99.90
36206;DHT22;22242;48.796;9.930;2023-05-16T04:00:18;8.30;99.90
36206;DHT22;22242;48.796;9.930;2023-05-16T04:02:45;8.40;99.90
36206;DHT22;22242;48.796;9.930;2023-05-16T04:05:12;8.50;99.90
36206;DHT22;22242;48.796;9.930;2023-05-16T04:07:39;8.50;99.90
36206;DHT22;22242;48.796;9.930;2023-05-16T04:10:07;8.50;99.90
36206;DHT22;22242;48.796;9.930;2023-05-16T04:12:35;8.60;99.90
36206;DHT22;22242;48.796;9.930;2023-05-16T04:15:03;8.70;99.90
36206;DHT22;22242;48.796;9.930;2023-05-16T04:17:31;8.70;99.90
36206;DHT22;22242;48.796;9.930;2023-05-16T04:19:58;8.80;99.90
36206;DHT22;22242;48.796;9.930;2023-05-16T04:22:26;8.80;99.90
36206;DHT22;22242;48.796;9.930;2023-05-16T04:24:53;8.90;99.90
36206;DHT22;22242;48.796;9.930;2023-05-16T04:27:20;8.90;99.90
36206;DHT22;22242;48.796;9.930;2023-05-16T04:29:47;9.00;99.90
36206;DHT22;22242;48.796;9.930;2023-05-16T04:32:15;9.10;99.90
36206;DHT22;22242;48.796;9.930;2023-05-16T04:34:43;9.30;99.90
36206;DHT22;22242;48.796;9.930;2023-05-16T04:37:11;9.30;99.90
36206;DHT22;22242;48.796;9.930;2023-05-16T04:39:39;9.30;99.90
36206;DHT22;22242;48.796;9.930;2023-05-16T04:42:06;9.30;99.90
36206;DHT22;22242;48.796;9.930;2023-05-16T04:44:33;9.40;99.90
36206;DHT22;22242;48.796;9.930;2023-05-16T04:47:00;9.50;99.90
36206;DHT22;22242;48.796;9.930;2023-05-16T04:49:29;9.40;99.90
36206;DHT22;22242;48.796;9.930;2023-05-16T04:51:56;9.40;99.90
36206;DHT22;22242;48.796;9.930;2023-05-16T04:54:23;9.40;99.90
36206;DHT22;22242;48.796;9.930;2023-05-16T04:56:50;9.40;99.90
36206;DHT22;22242;48.796;9.930;2023-05-16T04:59:18;9.40;99.90
36206;DHT22;22242;48.796;9.930;2023-05-16T05:01:46;9.50;99.90
36206;DHT22;22242;48.796;9.930;2023-05-16T05:04:13;9.50;99.90
36206;DHT22;22242;48.796;9.930;2023-05-16T05:06:41;9.30;99.90
36206;DHT22;22242;48.796;9.930;2023-05-16T05:09:09;9.50;99.90
36206;DHT22;22242;48.796;9.930;2023-05-16T05:11:36;9.50;99.90
36206;DHT22;22242;48.796;9.930;2023-05-16T05:14:03;9.50;99.90
36206;DHT22;22242;48.796;9.930;2023-05-16T05:16:30;9.50;99.90
36206;DHT22;22242;48.796;9.930;2023-05-16T05:18:58;9.60;99.90
36206;DHT22;22242;48.796;9.930;2023-05-16T05:21:26;9.70;99.90
36206;DHT22;22242;48.796;9.930;2023-05-16T05:23:57;10.00;99.90
36206;DHT22;22242;48.796;9.930;2023-05-16T05:26:24;10.00;99.90
36206;DHT22;22242;48.796;9.930;2023-05-16T05:28:53;10.10;99.90
36206;DHT22;22242;48.796;9.930;2023-05-16T05:31:23;10.30;99.90
36206;DHT22;22242;48.796;9.930;2023-05-16T05:34:01;10.50;99.90
36206;DHT22;22242;48.796;9.930;2023-05-16T05:36:28;10.70;99.90
36206;DHT22;22242;48.796;9.930;2023-05-16T05:38:57;10.60;99.90
36206;DHT22;22242;48.796;9.930;2023-05-16T05:41:24;10.80;99.90
36206;DHT22;22242;48.796;9.930;2023-05-16T05:43:51;11.20;99.90
36206;DHT22;22242;48.796;9.930;2023-05-16T05:46:18;11.40;99.90
36206;DHT22;22242;48.796;9.930;2023-05-16T05:48:45;11.70;99.90
36206;DHT22;22242;48.796;9.930;2023-05-16T05:51:12;11.60;99.90
36206;DHT22;22242;48.796;9.930;2023-05-16T05:53:40;11.80;99.90
36206;DHT22;22242;48.796;9.930;2023-05-16T05:56:08;11.80;99.90
36206;DHT22;22242;48.796;9.930;2023-05-16T05:58:36;11.90;99.90
36206;DHT22;22242;48.796;9.930;2023-05-16T06:01:03;11.70;99.90
36206;DHT22;22242;48.796;9.930;2023-05-16T06:03:30;11.70;99.90
36206;DHT22;22242;48.796;9.930;2023-05-16T06:06:16;11.60;99.90
36206;DHT22;22242;48.796;9.930;2023-05-16T06:08:49;11.80;99.90
36206;DHT22;22242;48.796;9.930;2023-05-16T06:11:20;11.80;99.90
36206;DHT22;22242;48.796;9.930;2023-05-16T06:13:48;11.90;99.90
36206;DHT22;22242;48.796;9.930;2023-05-16T06:16:15;11.80;99.90
36206;DHT22;22242;48.796;9.930;2023-05-16T06:18:42;11.60;99.90
36206;DHT22;22242;48.796;9.930;2023-05-16T06:21:09;11.90;99.90
36206;DHT22;22242;48.796;9.930;2023-05-16T06:23:36;12.00;99.90
36206;DHT22;22242;48.796;9.930;2023-05-16T06:26:03;11.90;99.90
36206;DHT22;22242;48.796;9.930;2023-05-16T06:28:32;12.10;99.90
36206;DHT22;22242;48.796;9.930;2023-05-16T06:30:59;12.10;99.90
36206;DHT22;22242;48.796;9.930;2023-05-16T06:33:26;11.70;99.90
36206;DHT22;22242;48.796;9.930;2023-05-16T06:35:53;11.90;99.90
36206;DHT22;22242;48.796;9.930;2023-05-16T06:38:20;11.90;99.90
36206;DHT22;22242;48.796;9.930;2023-05-16T06:40:47;12.00;99.90
36206;DHT22;22242;48.796;9.930;2023-05-16T06:43:14;11.70;99.90
36206;DHT22;22242;48.796;9.930;2023-05-16T06:45:43;11.70;99.90
36206;DHT22;22242;48.796;9.930;2023-05-16T06:48:12;11.80;99.90
36206;DHT22;22242;48.796;9.930;2023-05-16T06:50:40;11.80;99.90
36206;DHT22;22242;48.796;9.930;2023-05-16T06:53:07;11.70;99.90
36206;DHT22;22242;48.796;9.930;2023-05-16T06:55:36;11.70;99.90
36206;DHT22;22242;48.796;9.930;2023-05-16T06:58:03;11.60;99.90
36206;DHT22;22242;48.796;9.930;2023-05-16T07:00:31;11.50;99.90
36206;DHT22;22242;48.796;9.930;2023-05-16T07:02:59;11.40;99.90
36206;DHT22;22242;48.796;9.930;2023-05-16T07:05:26;11.30;99.90
36206;DHT22;22242;48.796;9.930;2023-05-16T07:07:54;11.20;99.90
36206;DHT22;22242;48.796;9.930;2023-05-16T07:10:21;11.40;99.90
36206;DHT22;22242;48.796;9.930;2023-05-16T07:12:48;11.40;99.90
36206;DHT22;22242;48.796;9.930;2023-05-16T07:15:15;11.40;99.90
36206;DHT22;22242;48.796;9.930;2023-05-16T07:17:42;11.40;99.90
36206;DHT22;22242;48.796;9.930;2023-05-16T07:20:11;11.40;99.90
36206;DHT22;22242;48.796;9.930;2023-05-16T07:22:39;11.40;99.90
36206;DHT22;22242;48.796;9.930;2023-05-16T07:25:07;11.30;99.90
36206;DHT22;22242;48.796;9.930;2023-05-16T07:27:37;11.40;99.90
36206;DHT22;22242;48.796;9.930;2023-05-16T07:30:07;11.30;99.90
36206;DHT22;22242;48.796;9.930;2023-05-16T07:32:34;11.30;99.90
36206;DHT22;22242;48.796;9.930;2023-05-16T07:35:02;11.30;99.90
36206;DHT22;22242;48.796;9.930;2023-05-16T07:37:31;11.30;99.90
36206;DHT22;22242;48.796;9.930;2023-05-16T07:39:58;11.30;99.90
36206;DHT22;22242;48.796;9.930;2023-05-16T07:42:25;11.20;99.90
36206;DHT22;22242;48.796;9.930;2023-05-16T07:44:52;11.30;99.90
36206;DHT22;22242;48.796;9.930;2023-05-16T07:47:19;11.20;99.90
36206;DHT22;22242;48.796;9.930;2023-05-16T07:49:46;11.40;99.90
36206;DHT22;22242;48.796;9.930;2023-05-16T07:52:14;11.40;99.90
36206;DHT22;22242;48.796;9.930;2023-05-16T07:54:44;11.50;99.90
36206;DHT22;22242;48.796;9.930;2023-05-16T07:57:12;11.40;99.90
36206;DHT22;22242;48.796;9.930;2023-05-16T07:59:39;11.30;99.90
36206;DHT22;22242;48.796;9.930;2023-05-16T08:02:06;11.40;99.90
36206;DHT22;22242;48.796;9.930;2023-05-16T08:04:33;11.40;99.90
36206;DHT22;22242;48.796;9.930;2023-05-16T08:07:01;11.60;99.90
36206;DHT22;22242;48.796;9.930;2023-05-16T08:09:28;11.60;99.90
36206;DHT22;22242;48.796;9.930;2023-05-16T08:11:56;11.90;99.90
36206;DHT22;22242;48.796;9.930;2023-05-16T08:14:28;11.90;99.90
36206;DHT22;22242;48.796;9.930;2023-05-16T08:16:56;11.90;99.90
36206;DHT22;22242;48.796;9.930;2023-05-16T08:19:25;12.00;99.90
36206;DHT22;22242;48.796;9.930;2023-05-16T08:21:52;12.10;99.90
36206;DHT22;22242;48.796;9.930;2023-05-16T08:24:19;12.20;99.90
36206;DHT22;22242;48.796;9.930;2023-05-16T08:26:46;12.20;99.90
36206;DHT22;22242;48.796;9.930;2023-05-16T08:29:15;12.30;99.90
36206;DHT22;22242;48.796;9.930;2023-05-16T08:31:42;12.40;99.90
36206;DHT22;22242;48.796;9.930;2023-05-16T08:34:09;12.20;99.90
36206;DHT22;22242;48.796;9.930;2023-05-16T08:36:36;12.20;99.90
36206;DHT22;22242;48.796;9.930;2023-05-16T08:39:04;12.30;99.90
36206;DHT22;22242;48.796;9.930;2023-05-16T08:41:32;12.40;99.90
36206;DHT22;22242;48.796;9.930;2023-05-16T08:43:59;12.30;99.90
36206;DHT22;22242;48.796;9.930;2023-05-16T08:46:28;12.20;99.90
36206;DHT22;22242;48.796;9.930;2023-05-16T08:48:58;12.40;99.90
36206;DHT22;22242;48.796;9.930;2023-05-16T08:51:27;12.40;99.90
36206;DHT22;22242;48.796;9.930;2023-05-16T08:53:59;12.30;99.90
36206;DHT22;22242;48.796;9.930;2023-05-16T08:56:26;12.40;99.90
36206;DHT22;22242;48.796;9.930;2023-05-16T08:58:54;12.30;99.90
36206;DHT22;22242;48.796;9.930;2023-05-16T09:01:22;12.20;99.90
36206;DHT22;22242;48.796;9.930;2023-05-16T09:03:51;12.20;99.90
36206;DHT22;22242;48.796;9.930;2023-05-16T09:06:19;12.00;99.90
36206;DHT22;22242;48.796;9.930;2023-05-16T09:08:46;12.10;99.90
36206;DHT22;22242;48.796;9.930;2023-05-16T09:11:14;12.10;99.90
36206;DHT22;22242;48.796;9.930;2023-05-16T09:13:41;12.00;99.90
36206;DHT22;22242;48.796;9.930;2023-05-16T09:16:10;12.00;99.90
36206;DHT22;22242;48.796;9.930;2023-05-16T09:18:37;12.00;99.90
36206;DHT22;22242;48.796;9.930;2023-05-16T09:21:06;12.00;99.90
36206;DHT22;22242;48.796;9.930;2023-05-16T09:23:33;12.00;99.90
36206;DHT22;22242;48.796;9.930;2023-05-16T09:26:01;12.00;99.90
36206;DHT22;22242;48.796;9.930;2023-05-16T09:28:30;11.90;99.90
36206;DHT22;22242;48.796;9.930;2023-05-16T09:30:57;12.00;99.90
36206;DHT22;22242;48.796;9.930;2023-05-16T09:33:27;12.00;99.90
36206;DHT22;22242;48.796;9.930;2023-05-16T09:35:55;12.00;99.90
36206;DHT22;22242;48.796;9.930;2023-05-16T09:38:25;12.10;99.90
36206;DHT22;22242;48.796;9.930;2023-05-16T09:40:53;12.00;99.90
36206;DHT22;22242;48.796;9.930;2023-05-16T09:43:24;12.20;99.90
36206;DHT22;22242;48.796;9.930;2023-05-16T09:45:52;12.00;99.90
36206;DHT22;22242;48.796;9.930;2023-05-16T09:48:21;12.30;99.90
36206;DHT22;22242;48.796;9.930;2023-05-16T09:50:50;12.40;99.90
36206;DHT22;22242;48.796;9.930;2023-05-16T09:53:25;12.70;99.90
36206;DHT22;22242;48.796;9.930;2023-05-16T09:56:00;12.80;99.90
36206;DHT22;22242;48.796;9.930;2023-05-16T09:58:29;12.70;99.90
36206;DHT22;22242;48.796;9.930;2023-05-16T10:00:56;12.80;99.90
36206;DHT22;22242;48.796;9.930;2023-05-16T10:03:24;12.70;99.90
36206;DHT22;22242;48.796;9.930;2023-05-16T10:05:52;12.70;99.90
36206;DHT22;22242;48.796;9.930;2023-05-16T10:08:21;12.60;99.90
36206;DHT22;22242;48.796;9.930;2023-05-16T10:10:52;12.70;99.90
36206;DHT22;22242;48.796;9.930;2023-05-16T10:13:20;12.60;99.90
36206;DHT22;22242;48.796;9.930;2023-05-16T10:15:48;12.60;99.90
36206;DHT22;22242;48.796;9.930;2023-05-16T10:18:17;12.60;99.90
36206;DHT22;22242;48.796;9.930;2023-05-16T10:20:46;12.40;99.90
36206;DHT22;22242;48.796;9.930;2023-05-16T10:23:16;12.50;99.90
36206;DHT22;22242;48.796;9.930;2023-05-16T10:25:46;12.60;99.90
36206;DHT22;22242;48.796;9.930;2023-05-16T10:28:15;12.60;99.90
36206;DHT22;22242;48.796;9.930;2023-05-16T10:30:44;12.60;99.90
36206;DHT22;22242;48.796;9.930;2023-05-16T10:33:13;12.40;99.90
36206;DHT22;22242;48.796;9.930;2023-05-16T10:35:42;12.10;99.90
36206;DHT22;22242;48.796;9.930;2023-05-16T10:38:11;12.10;99.90
36206;DHT22;22242;48.796;9.930;2023-05-16T10:40:39;12.30;99.90
36206;DHT22;22242;48.796;9.930;2023-05-16T10:43:07;12.20;99.90
36206;DHT22;22242;48.796;9.930;2023-05-16T10:45:39;12.30;99.90
36206;DHT22;22242;48.796;9.930;2023-05-16T10:48:06;12.50;99.90
36206;DHT22;22242;48.796;9.930;2023-05-16T10:50:36;12.60;99.90
36206;DHT22;22242;48.796;9.930;2023-05-16T10:53:18;12.40;99.90
36206;DHT22;22242;48.796;9.930;2023-05-16T10:55:50;12.60;99.90
36206;DHT22;22242;48.796;9.930;2023-05-16T10:58:46;12.70;99.90
36206;DHT22;22242;48.796;9.930;2023-05-16T11:01:22;12.90;99.90
36206;DHT22;22242;48.796;9.930;2023-05-16T11:04:07;12.90;99.90
36206;DHT22;22242;48.796;9.930;2023-05-16T11:06:43;13.00;99.90
36206;DHT22;22242;48.796;9.930;2023-05-16T11:09:22;12.90;99.90
36206;DHT22;22242;48.796;9.930;2023-05-16T11:11:59;13.10;99.90
36206;DHT22;22242;48.796;9.930;2023-05-16T11:14:34;13.00;99.90
36206;DHT22;22242;48.796;9.930;2023-05-16T11:17:07;13.10;99.90
36206;DHT22;22242;48.796;9.930;2023-05-16T11:19:39;13.00;99.90
36206;DHT22;22242;48.796;9.930;2023-05-16T11:22:22;12.90;99.90
36206;DHT22;22242;48.796;9.930;2023-05-16T11:24:52;12.80;99.90
36206;DHT22;22242;48.796;9.930;2023-05-16T11:27:21;12.90;99.90
36206;DHT22;22242;48.796;9.930;2023-05-16T11:29:49;12.90;99.90
36206;DHT22;22242;48.796;9.930;2023-05-16T11:32:20;12.90;99.90
36206;DHT22;22242;48.796;9.930;2023-05-16T11:34:48;12.90;99.90
36206;DHT22;22242;48.796;9.930;2023-05-16T11:37:17;12.70;99.90
36206;DHT22;22242;48.796;9.930;2023-05-16T11:39:45;12.90;99.90
36206;DHT22;22242;48.796;9.930;2023-05-16T11:42:13;13.20;99.90
36206;DHT22;22242;48.796;9.930;2023-05-16T11:44:40;12.90;99.90
36206;DHT22;22242;48.796;9.930;2023-05-16T11:47:07;12.90;99.90
36206;DHT22;22242;48.796;9.930;2023-05-16T11:49:36;13.10;99.90
36206;DHT22;22242;48.796;9.930;2023-05-16T11:52:03;13.20;99.90
36206;DHT22;22242;48.796;9.930;2023-05-16T11:54:31;13.50;99.90
36206;DHT22;22242;48.796;9.930;2023-05-16T11:56:59;14.10;99.90
36206;DHT22;22242;48.796;9.930;2023-05-16T11:59:26;14.40;99.90
36206;DHT22;22242;48.796;9.930;2023-05-16T12:01:53;13.90;99.90
36206;DHT22;22242;48.796;9.930;2023-05-16T12:04:20;13.80;99.90
36206;DHT22;22242;48.796;9.930;2023-05-16T12:06:59;13.50;99.90
36206;DHT22;22242;48.796;9.930;2023-05-16T12:09:27;13.50;99.90
36206;DHT22;22242;48.796;9.930;2023-05-16T12:11:54;13.50;99.90
36206;DHT22;22242;48.796;9.930;2023-05-16T12:14:21;13.30;99.90
36206;DHT22;22242;48.796;9.930;2023-05-16T12:16:51;13.60;99.90
36206;DHT22;22242;48.796;9.930;2023-05-16T12:19:19;13.50;99.90
36206;DHT22;22242;48.796;9.930;2023-05-16T12:21:46;13.20;99.90
36206;DHT22;22242;48.796;9.930;2023-05-16T12:24:14;13.20;99.90
36206;DHT22;22242;48.796;9.930;2023-05-16T12:26:42;13.30;99.90
36206;DHT22;22242;48.796;9.930;2023-05-16T12:29:09;13.50;99.90
36206;DHT22;22242;48.796;9.930;2023-05-16T12:31:38;13.10;99.90
36206;DHT22;22242;48.796;9.930;2023-05-16T12:34:16;13.10;99.90
36206;DHT22;22242;48.796;9.930;2023-05-16T12:36:43;13.20;99.90
36206;DHT22;22242;48.796;9.930;2023-05-16T12:39:11;13.00;99.90
36206;DHT22;22242;48.796;9.930;2023-05-16T12:41:41;13.20;99.90
36206;DHT22;22242;48.796;9.930;2023-05-16T12:44:12;13.00;99.90
36206;DHT22;22242;48.796;9.930;2023-05-16T12:46:42;12.90;99.90
36206;DHT22;22242;48.796;9.930;2023-05-16T12:49:10;12.90;99.90
36206;DHT22;22242;48.796;9.930;2023-05-16T12:51:37;12.90;99.90
36206;DHT22;22242;48.796;9.930;2023-05-16T12:54:08;12.90;99.90
36206;DHT22;22242;48.796;9.930;2023-05-16T12:56:40;13.10;99.90
36206;DHT22;22242;48.796;9.930;2023-05-16T12:59:09;13.10;99.90
36206;DHT22;22242;48.796;9.930;2023-05-16T13:01:37;12.90;99.90
36206;DHT22;22242;48.796;9.930;2023-05-16T13:04:05;12.90;99.90
36206;DHT22;22242;48.796;9.930;2023-05-16T13:06:32;13.20;99.90
36206;DHT22;22242;48.796;9.930;2023-05-16T13:09:00;13.20;99.90
36206;DHT22;22242;48.796;9.930;2023-05-16T13:11:27;13.40;99.90
36206;DHT22;22242;48.796;9.930;2023-05-16T13:13:56;13.90;99.90
36206;DHT22;22242;48.796;9.930;2023-05-16T13:16:23;14.20;99.90
36206;DHT22;22242;48.796;9.930;2023-05-16T13:18:50;14.20;99.90
36206;DHT22;22242;48.796;9.930;2023-05-16T13:21:18;14.40;99.90
36206;DHT22;22242;48.796;9.930;2023-05-16T13:23:47;14.40;99.90
36206;DHT22;22242;48.796;9.930;2023-05-16T13:26:14;14.40;99.90
36206;DHT22;22242;48.796;9.930;2023-05-16T13:28:41;14.40;99.90
36206;DHT22;22242;48.796;9.930;2023-05-16T13:31:09;14.10;99.90
36206;DHT22;22242;48.796;9.930;2023-05-16T13:33:36;14.20;99.90
36206;DHT22;22242;48.796;9.930;2023-05-16T13:36:04;13.90;99.90
36206;DHT22;22242;48.796;9.930;2023-05-16T13:38:31;13.80;99.90
36206;DHT22;22242;48.796;9.930;2023-05-16T13:40:59;13.60;99.90
36206;DHT22;22242;48.796;9.930;2023-05-16T13:43:26;13.60;99.90
36206;DHT22;22242;48.796;9.930;2023-05-16T13:45:53;13.70;99.90
36206;DHT22;22242;48.796;9.930;2023-05-16T13:48:21;13.80;99.90
36206;DHT22;22242;48.796;9.930;2023-05-16T13:50:49;14.00;99.90
36206;DHT22;22242;48.796;9.930;2023-05-16T13:53:16;14.20;99.90
36206;DHT22;22242;48.796;9.930;2023-05-16T13:55:44;14.20;99.90
36206;DHT22;22242;48.796;9.930;2023-05-16T13:58:11;14.00;99.90
36206;DHT22;22242;48.796;9.930;2023-05-16T14:00:38;13.70;99.90
36206;DHT22;22242;48.796;9.930;2023-05-16T14:03:05;13.90;99.90
36206;DHT22;22242;48.796;9.930;2023-05-16T14:05:33;14.00;99.90
36206;DHT22;22242;48.796;9.930;2023-05-16T14:08:00;13.90;99.90
36206;DHT22;22242;48.796;9.930;2023-05-16T14:10:28;14.00;99.90
36206;DHT22;22242;48.796;9.930;2023-05-16T14:12:56;13.80;99.90
36206;DHT22;22242;48.796;9.930;2023-05-16T14:15:23;14.10;99.90
36206;DHT22;22242;48.796;9.930;2023-05-16T14:17:50;14.00;99.90
36206;DHT22;22242;48.796;9.930;2023-05-16T14:20:17;13.80;99.90
36206;DHT22;22242;48.796;9.930;2023-05-16T14:22:45;13.40;99.90
36206;DHT22;22242;48.796;9.930;2023-05-16T14:25:12;13.30;99.90
36206;DHT22;22242;48.796;9.930;2023-05-16T14:27:39;13.30;99.90
36206;DHT22;22242;48.796;9.930;2023-05-16T14:30:08;12.90;99.90
36206;DHT22;22242;48.796;9.930;2023-05-16T14:32:35;12.90;99.90
36206;DHT22;22242;48.796;9.930;2023-05-16T14:35:02;12.60;99.90
36206;DHT22;22242;48.796;9.930;2023-05-16T14:37:30;12.60;99.90
36206;DHT22;22242;48.796;9.930;2023-05-16T14:39:59;12.60;99.90
36206;DHT22;22242;48.796;9.930;2023-05-16T14:42:26;12.40;99.90
36206;DHT22;22242;48.796;9.930;2023-05-16T14:44:53;12.40;99.90
36206;DHT22;22242;48.796;9.930;2023-05-16T14:47:20;12.50;99.90
36206;DHT22;22242;48.796;9.930;2023-05-16T14:49:48;12.40;99.90
36206;DHT22;22242;48.796;9.930;2023-05-16T14:52:15;12.30;99.90
36206;DHT22;22242;48.796;9.930;2023-05-16T14:54:42;12.30;99.90
36206;DHT22;22242;48.796;9.930;2023-05-16T14:57:10;12.30;99.90
36206;DHT22;22242;48.796;9.930;2023-05-16T14:59:37;12.40;99.90
36206;DHT22;22242;48.796;9.930;2023-05-16T15:02:04;12.20;99.90
36206;DHT22;22242;48.796;9.930;2023-05-16T15:04:32;12.30;99.90
36206;DHT22;22242;48.796;9.930;2023-05-16T15:06:59;12.30;99.90
36206;DHT22;22242;48.796;9.930;2023-05-16T15:09:26;12.40;99.90
36206;DHT22;22242;48.796;9.930;2023-05-16T15:11:53;12.40;99.90
36206;DHT22;22242;48.796;9.930;2023-05-16T15:14:21;12.30;99.90
36206;DHT22;22242;48.796;9.930;2023-05-16T15:16:48;12.20;99.90
36206;DHT22;22242;48.796;9.930;2023-05-16T15:19:15;12.30;99.90
36206;DHT22;22242;48.796;9.930;2023-05-16T15:21:43;12.30;99.90
36206;DHT22;22242;48.796;9.930;2023-05-16T15:24:10;12.50;99.90
36206;DHT22;22242;48.796;9.930;2023-05-16T15:26:38;12.40;99.90
36206;DHT22;22242;48.796;9.930;2023-05-16T15:29:05;12.40;99.90
36206;DHT22;22242;48.796;9.930;2023-05-16T15:31:34;12.30;99.90
36206;DHT22;22242;48.796;9.930;2023-05-16T15:34:00;12.30;99.90
36206;DHT22;22242;48.796;9.930;2023-05-16T15:36:27;12.30;99.90
36206;DHT22;22242;48.796;9.930;2023-05-16T15:38:54;12.40;99.90
36206;DHT22;22242;48.796;9.930;2023-05-16T15:41:22;12.50;99.90
36206;DHT22;22242;48.796;9.930;2023-05-16T15:43:49;12.40;99.90
36206;DHT22;22242;48.796;9.930;2023-05-16T15:46:16;12.20;99.90